Time;durP1;ratioP1;P1;durP2;ratioP2;P2;SDS_P1;SDS_P2;PMS_P1;PMS_P2;Temp;Humidity;BMP_temperature;BMP_pressure;BME280_temperature;BME280_humidity;BME280_pressure;Samples;Min_cycle;Max_cycle;Signal;HPM_P1;HPM_P2
2023/01/13 00:00:22;;;;;;;2.13;0.95;;;;;;;12.27;53.37;99399.59;5036657;28;20239;-85
2023/01/13 00:02:48;;;;;;;1.10;0.83;;;;;;;12.27;53.47;99391.72;5037857;28;20195;-85
2023/01/13 00:05:13;;;;;;;1.83;1.00;;;;;;;12.31;53.02;99387.88;5047658;28;20803;-86
2023/01/13 00:07:39;;;;;;;1.03;0.60;;;;;;;12.33;52.81;99386.81;5052409;28;20172;-85
2023/01/13 00:10:07;;;;;;;1.70;0.80;;;;;;;12.36;52.66;99385.75;5051050;28;20219;-84
2023/01/13 00:12:33;;;;;;;1.23;0.90;;;;;;;12.40;52.61;99389.84;5044573;28;20294;-85
2023/01/13 00:14:58;;;;;;;1.70;1.17;;;;;;;12.42;52.46;99390.53;5051386;28;20745;-85
2023/01/13 00:17:23;;;;;;;1.00;0.90;;;;;;;12.44;52.33;99375.47;5052041;28;20205;-85
2023/01/13 00:19:49;;;;;;;0.90;0.70;;;;;;;12.46;52.27;99373.56;5036142;28;20675;-86
2023/01/13 00:22:14;;;;;;;2.10;1.10;;;;;;;12.46;52.06;99378.00;5034527;28;20168;-85
2023/01/13 00:24:39;;;;;;;2.03;0.77;;;;;;;12.47;52.19;99384.94;5041739;28;20178;-85
2023/01/13 00:27:05;;;;;;;1.33;0.80;;;;;;;12.48;52.09;99376.94;5054010;28;20768;-85
2023/01/13 00:29:30;;;;;;;1.90;0.90;;;;;;;12.52;52.01;99362.56;5019497;28;20217;-85
2023/01/13 00:31:57;;;;;;;1.30;0.80;;;;;;;12.54;51.90;99371.19;5032708;28;20184;-86
2023/01/13 00:34:23;;;;;;;0.90;0.77;;;;;;;12.56;52.10;99360.56;5035509;28;20194;-85
2023/01/13 00:36:49;;;;;;;2.42;0.90;;;;;;;12.52;52.07;99356.47;5049842;28;20194;-85
2023/01/13 00:39:14;;;;;;;2.03;0.70;;;;;;;12.53;51.97;99353.72;5031172;28;20681;-86
2023/01/13 00:44:24;;;;;;;1.90;0.70;;;;;;;12.49;51.94;99348.78;5054270;28;20179;-84
2023/01/13 00:46:49;;;;;;;1.00;0.90;;;;;;;12.53;52.04;99353.72;5054432;28;20237;-85
2023/01/13 00:49:14;;;;;;;2.73;0.73;;;;;;;12.54;51.93;99347.47;5054394;28;20263;-86
2023/01/13 00:51:40;;;;;;;0.87;0.80;;;;;;;12.56;51.91;99344.75;5053970;28;20215;-86
2023/01/13 00:54:05;;;;;;;1.47;0.80;;;;;;;12.51;52.19;99333.72;5055199;28;20191;-86
2023/01/13 00:56:30;;;;;;;2.43;1.07;;;;;;;12.49;52.34;99344.34;5052706;28;20283;-85
2023/01/13 00:58:57;;;;;;;1.80;0.90;;;;;;;12.49;52.36;99336.44;5057094;28;20191;-85
2023/01/13 01:01:23;;;;;;;1.17;1.08;;;;;;;12.49;52.50;99346.16;5054857;28;20183;-86
2023/01/13 01:03:51;;;;;;;2.90;0.95;;;;;;;12.47;52.33;99338.34;5054074;28;20167;-86
2023/01/13 01:06:20;;;;;;;1.98;0.90;;;;;;;12.49;52.59;99332.97;5052709;28;20626;-85
2023/01/13 01:08:45;;;;;;;1.05;0.95;;;;;;;12.46;52.54;99347.22;5050237;28;20209;-85
2023/01/13 01:11:14;;;;;;;2.13;1.10;;;;;;;12.42;52.57;99337.03;5050553;28;20656;-86
2023/01/13 01:13:39;;;;;;;1.35;0.90;;;;;;;12.44;52.78;99335.97;5051427;28;20647;-85
2023/01/13 01:16:07;;;;;;;1.30;0.80;;;;;;;12.45;52.85;99342.94;5053051;28;20233;-85
2023/01/13 01:18:37;;;;;;;2.05;1.10;;;;;;;12.42;53.03;99337.88;5025375;28;20580;-86
2023/01/13 01:21:03;;;;;;;0.90;0.80;;;;;;;12.41;53.31;99344.09;5029696;28;20664;-86
2023/01/13 01:23:29;;;;;;;1.70;0.80;;;;;;;12.35;53.67;99345.41;5032782;28;20172;-85
2023/01/13 01:26:07;;;;;;;1.73;1.02;;;;;;;12.36;53.76;99333.91;5054141;28;20450;-85
2023/01/13 01:28:33;;;;;;;1.10;1.00;;;;;;;12.34;53.94;99340.22;5052756;28;20772;-85
2023/01/13 01:31:00;;;;;;;2.47;1.13;;;;;;;12.33;54.17;99341.19;5036395;28;20581;-85
2023/01/13 01:33:26;;;;;;;1.35;1.00;;;;;;;12.30;54.49;99336.16;5052922;28;20228;-85
2023/01/13 01:35:53;;;;;;;1.67;0.80;;;;;;;12.27;54.46;99341.66;5053149;28;20194;-85
2023/01/13 01:38:20;;;;;;;2.88;1.00;;;;;;;12.27;54.52;99333.78;5052597;28;20258;-84
2023/01/13 01:40:45;;;;;;;2.25;1.02;;;;;;;12.27;54.68;99352.19;5052939;28;20715;-84
2023/01/13 01:46:00;;;;;;;1.40;1.02;;;;;;;12.24;54.64;99336.63;5052856;28;20180;-85
2023/01/13 01:48:29;;;;;;;4.40;1.47;;;;;;;12.22;54.75;99349.06;5044754;28;20595;-84
2023/01/13 01:50:54;;;;;;;2.88;1.40;;;;;;;12.24;54.90;99334.84;5053088;28;20289;-85
2023/01/13 01:53:23;;;;;;;1.00;0.80;;;;;;;12.25;55.04;99335.66;5052454;28;20666;-86
2023/01/13 01:55:49;;;;;;;1.23;1.05;;;;;;;12.22;55.15;99333.28;5050617;28;20194;-85
2023/01/13 01:58:17;;;;;;;4.83;2.13;;;;;;;12.23;55.27;99341.03;5051793;28;20440;-85
2023/01/13 02:00:43;;;;;;;11.10;1.60;;;;;;;12.23;55.21;99340.22;5050967;28;20460;-84
2023/01/13 02:03:09;;;;;;;3.73;0.97;;;;;;;12.18;55.28;99337.94;5052515;28;20180;-84
2023/01/13 02:05:35;;;;;;;2.03;0.98;;;;;;;12.21;55.40;99336.88;5050494;28;20224;-85
2023/01/13 02:08:01;;;;;;;2.73;1.10;;;;;;;12.16;55.59;99335.41;5047298;28;20191;-84
2023/01/13 02:10:29;;;;;;;6.15;1.13;;;;;;;12.16;55.72;99334.56;5034633;28;20244;-84
2023/01/13 02:13:01;;;;;;;2.00;1.00;;;;;;;12.15;55.79;99327.59;5036583;28;20289;-84
2023/01/13 02:15:36;;;;;;;2.45;0.90;;;;;;;12.08;56.25;99315.88;5042767;28;20187;-84
2023/01/13 02:18:11;;;;;;;2.90;1.10;;;;;;;12.06;56.34;99317.78;5046444;28;20183;-84
2023/01/13 02:21:00;;;;;;;1.30;1.02;;;;;;;12.05;56.50;99330.09;5052054;28;20184;-85
2023/01/13 02:26:50;;;;;;;3.60;1.00;;;;;;;11.97;57.26;99314.03;5052519;28;20203;-84
2023/01/13 02:32:54;;;;;;;2.58;0.98;;;;;;;11.93;57.28;99309.94;5056722;28;20211;-84
2023/01/13 02:35:28;;;;;;;1.40;0.90;;;;;;;11.90;57.46;99307.53;5054301;28;20197;-84
2023/01/13 02:37:56;;;;;;;1.65;0.77;;;;;;;11.88;57.58;99299.78;5036103;28;20277;-84
2023/01/13 02:40:28;;;;;;;4.40;1.08;;;;;;;11.91;57.73;99306.59;5047506;28;20225;-84
2023/01/13 02:45:57;;;;;;;1.13;0.90;;;;;;;11.86;57.87;99306.09;5057640;28;20213;-84
2023/01/13 02:48:25;;;;;;;2.75;0.88;;;;;;;11.85;58.06;99299.09;5058137;28;20226;-84
2023/01/13 02:51:22;;;;;;;2.05;0.93;;;;;;;11.85;58.20;99293.84;5058678;28;20283;-85
2023/01/13 02:54:03;;;;;;;1.00;0.90;;;;;;;11.83;58.36;99298.41;5045295;28;20209;-84
2023/01/13 02:56:31;;;;;;;3.17;1.10;;;;;;;11.79;58.49;99307.47;5056900;28;20226;-84
2023/01/13 02:58:59;;;;;;;1.88;0.95;;;;;;;11.76;58.51;99295.38;5043803;28;20284;-84
2023/01/13 03:01:25;;;;;;;0.77;0.70;;;;;;;11.74;58.91;99298.09;5036473;28;20335;-85
2023/01/13 03:03:50;;;;;;;1.40;1.17;;;;;;;11.79;58.59;99299.56;5036049;28;20186;-85
2023/01/13 03:06:15;;;;;;;0.80;0.80;;;;;;;11.76;58.76;99300.63;5045417;28;20295;-85
2023/01/13 03:08:53;;;;;;;3.53;1.00;;;;;;;11.69;59.08;99308.16;5037181;28;20229;-84
2023/01/13 03:11:20;;;;;;;1.88;0.88;;;;;;;11.70;59.10;99312.44;5019583;28;20212;-84
2023/01/13 03:14:15;;;;;;;2.65;0.90;;;;;;;11.71;59.02;99303.59;5056494;28;20291;-84
2023/01/13 03:17:05;;;;;;;1.20;1.10;;;;;;;11.66;59.32;99310.13;5046507;28;20266;-84
2023/01/13 03:19:42;;;;;;;1.27;0.88;;;;;;;11.63;59.44;99316.47;5041546;28;20230;-85
2023/01/13 03:22:21;;;;;;;1.20;0.85;;;;;;;11.64;59.36;99312.91;5036765;28;20199;-84
2023/01/13 03:24:54;;;;;;;2.08;0.88;;;;;;;11.62;59.46;99313.97;5037016;28;20193;-85
2023/01/13 03:27:29;;;;;;;1.35;0.90;;;;;;;11.61;59.61;99307.88;5028397;28;20197;-85
2023/01/13 03:30:06;;;;;;;3.08;1.20;;;;;;;11.61;59.61;99307.88;5040599;28;20308;-84
2023/01/13 03:32:36;;;;;;;0.80;0.70;;;;;;;11.62;59.70;99311.34;5035394;28;20216;-85
2023/01/13 03:35:17;;;;;;;1.20;0.90;;;;;;;11.63;59.50;99294.59;5015173;28;20254;-84
2023/01/13 03:37:49;;;;;;;5.13;1.55;;;;;;;11.58;59.77;99297.53;5003916;28;20194;-85
2023/01/13 03:40:24;;;;;;;1.35;0.75;;;;;;;11.63;59.52;99271.75;5035437;28;20628;-85
2023/01/13 03:45:42;;;;;;;3.15;0.80;;;;;;;11.56;60.00;99275.78;5035329;28;20190;-85
2023/01/13 03:48:13;;;;;;;1.42;0.93;;;;;;;11.55;59.94;99266.22;5026154;28;20201;-85
2023/01/13 03:50:48;;;;;;;2.67;0.93;;;;;;;11.52;60.16;99269.06;5023755;28;20213;-85
2023/01/13 03:53:38;;;;;;;1.45;0.80;;;;;;;11.52;60.18;99276.94;5017080;28;20233;-85
2023/01/13 03:56:20;;;;;;;1.30;0.90;;;;;;;11.50;60.21;99263.94;4988774;28;20709;-84
2023/01/13 03:58:48;;;;;;;3.08;0.80;;;;;;;11.55;60.37;99275.91;5009979;23;20661;-85
2023/01/13 04:01:43;;;;;;;1.20;0.90;;;;;;;11.53;60.34;99273.38;5000753;28;20616;-83
2023/01/13 04:04:15;;;;;;;3.40;0.70;;;;;;;11.54;60.23;99266.34;5017585;28;20679;-83
2023/01/13 04:06:56;;;;;;;1.05;0.65;;;;;;;11.56;60.15;99260.00;5024147;28;20289;-83
2023/01/13 04:09:47;;;;;;;2.88;0.68;;;;;;;11.56;60.10;99249.50;5011948;28;20480;-84
2023/01/13 04:12:23;;;;;;;1.33;0.70;;;;;;;11.55;60.23;99247.78;4994694;28;20228;-84
2023/01/13 04:14:50;;;;;;;4.07;0.80;;;;;;;11.54;60.00;99248.75;5017531;28;20209;-83
2023/01/13 04:17:15;;;;;;;0.77;0.77;;;;;;;11.57;59.99;99248.53;5025333;28;20366;-83
2023/01/13 04:19:41;;;;;;;0.80;0.70;;;;;;;11.55;59.85;99239.91;5011198;28;20250;-83
2023/01/13 04:22:06;;;;;;;1.00;0.77;;;;;;;11.58;59.76;99234.41;5005956;28;20200;-84
2023/01/13 04:24:31;;;;;;;0.80;0.70;;;;;;;11.56;59.92;99241.59;5018298;28;20321;-83
2023/01/13 04:26:57;;;;;;;1.30;0.70;;;;;;;11.55;60.00;99239.91;5012293;28;20562;-83
2023/01/13 04:29:22;;;;;;;0.90;0.80;;;;;;;11.56;59.98;99246.84;5031708;28;20242;-83
2023/01/13 04:31:48;;;;;;;2.13;0.80;;;;;;;11.58;59.78;99250.19;5033775;28;20249;-83
2023/01/13 04:34:13;;;;;;;0.93;0.60;;;;;;;11.54;60.10;99258.44;5012615;28;20192;-83
2023/01/13 04:36:38;;;;;;;1.77;0.70;;;;;;;11.56;59.97;99262.63;5031626;28;20201;-84
2023/01/13 04:39:04;;;;;;;1.30;1.20;;;;;;;11.56;60.10;99270.53;5015837;28;20223;-85
2023/01/13 04:41:56;;;;;;;2.00;0.70;;;;;;;11.60;60.23;99271.13;5006446;28;20221;-84
2023/01/13 04:44:15;;;;;;;1.95;0.80;;;;;;;11.57;60.32;99268.75;5011900;28;20684;-83
2023/01/13 04:46:40;;;;;;;0.70;0.60;;;;;;;11.54;60.59;99267.16;5027899;28;20195;-84
2023/01/13 04:49:05;;;;;;;3.20;0.70;;;;;;;11.52;60.75;99272.53;5031651;28;20578;-84
2023/01/13 04:51:31;;;;;;;0.70;0.60;;;;;;;11.49;60.88;99266.66;5013115;28;20185;-83
2023/01/13 04:53:56;;;;;;;2.20;0.80;;;;;;;11.48;61.00;99271.09;5012292;28;20523;-84
2023/01/13 04:56:21;;;;;;;0.77;0.60;;;;;;;11.48;61.25;99268.47;5031211;28;20208;-83
2023/01/13 04:58:47;;;;;;;0.70;0.70;;;;;;;11.49;61.03;99266.66;5025656;28;20274;-83
2023/01/13 05:01:12;;;;;;;0.90;0.70;;;;;;;11.45;61.51;99275.72;5031467;28;20210;-83
2023/01/13 05:03:38;;;;;;;0.60;0.50;;;;;;;11.39;61.67;99269.09;5030280;28;20332;-83
2023/01/13 05:06:03;;;;;;;1.03;0.67;;;;;;;11.40;61.82;99264.72;5031705;28;20682;-83
2023/01/13 05:08:28;;;;;;;1.27;0.80;;;;;;;11.36;62.12;99255.34;5026130;28;20227;-83
2023/01/13 05:10:54;;;;;;;0.87;0.70;;;;;;;11.37;62.27;99262.28;5031042;28;20677;-84
2023/01/13 05:18:30;;;;;;;0.70;0.60;;;;;;;11.26;62.71;99240.25;5034051;28;20597;-84
2023/01/13 05:20:55;;;;;;;0.70;0.70;;;;;;;11.18;63.07;99239.97;5041784;28;20273;-84
2023/01/13 05:26:05;;;;;;;2.75;1.00;;;;;;;11.15;63.52;99247.22;5037613;28;20798;-83
2023/01/13 05:28:32;;;;;;;1.20;0.70;;;;;;;11.12;63.70;99243.00;5006701;28;20733;-84
2023/01/13 05:30:58;;;;;;;1.23;0.60;;;;;;;11.13;63.67;99228.94;5026837;28;20197;-84
2023/01/13 05:33:23;;;;;;;0.60;0.50;;;;;;;11.16;63.62;99225.25;5030674;28;20222;-83
2023/01/13 05:35:49;;;;;;;0.73;0.70;;;;;;;11.11;63.61;99237.88;5030059;28;20469;-83
2023/01/13 05:38:15;;;;;;;0.60;0.53;;;;;;;11.12;63.60;99239.56;5032246;28;20219;-84
2023/01/13 05:43:25;;;;;;;0.80;0.60;;;;;;;11.08;63.77;99241.56;5033071;28;20272;-85
2023/01/13 05:45:59;;;;;;;1.00;0.63;;;;;;;11.06;64.06;99249.56;5032533;28;20203;-84
2023/01/13 05:48:30;;;;;;;0.70;0.60;;;;;;;11.03;64.17;99241.06;5031682;28;20196;-85
2023/01/13 05:50:56;;;;;;;0.85;0.73;;;;;;;11.07;64.01;99239.88;5031697;28;20290;-83
2023/01/13 05:53:22;;;;;;;2.40;0.60;;;;;;;11.06;64.18;99235.56;5015912;28;20258;-84
2023/01/13 05:55:49;;;;;;;1.23;0.60;;;;;;;11.08;64.16;99241.56;5030142;28;20471;-82
2023/01/13 05:58:15;;;;;;;0.70;0.60;;;;;;;11.09;64.54;99253.75;5020451;28;20203;-83
2023/01/13 06:00:41;;;;;;;0.70;0.60;;;;;;;11.08;64.31;99250.28;5025875;28;20245;-83
2023/01/13 06:03:07;;;;;;;1.67;0.77;;;;;;;11.07;64.75;99239.88;5012054;28;20193;-82
2023/01/13 06:05:33;;;;;;;1.88;0.70;;;;;;;11.06;64.87;99240.84;5031651;28;20202;-82
2023/01/13 06:08:00;;;;;;;1.37;0.80;;;;;;;11.03;64.83;99239.25;5033645;28;20199;-83
2023/01/13 06:10:27;;;;;;;3.75;0.70;;;;;;;11.05;64.99;99232.13;5034397;28;20539;-83
2023/01/13 06:12:52;;;;;;;1.05;0.60;;;;;;;11.04;64.94;99230.44;5027844;28;20249;-83
2023/01/13 06:15:18;;;;;;;0.70;0.60;;;;;;;11.03;65.15;99226.13;5016075;28;20202;-84
2023/01/13 06:17:43;;;;;;;2.07;0.70;;;;;;;11.00;65.36;99217.63;5033758;28;20198;-84
2023/01/13 06:20:10;;;;;;;2.07;0.80;;;;;;;11.04;65.06;99225.19;5031386;28;20228;-83
2023/01/13 06:22:38;;;;;;;0.80;0.70;;;;;;;11.06;64.99;99210.13;5018210;28;20196;-83
2023/01/13 06:25:15;;;;;;;1.00;0.70;;;;;;;11.07;64.83;99209.19;5016355;28;20227;-83
2023/01/13 06:27:40;;;;;;;1.25;0.70;;;;;;;11.05;64.81;99205.84;5032943;28;20205;-85
2023/01/13 06:30:07;;;;;;;0.80;0.70;;;;;;;11.08;64.99;99207.41;5026862;28;20494;-84
2023/01/13 06:32:39;;;;;;;1.38;0.88;;;;;;;11.07;64.95;99200.44;5035634;28;20481;-84
2023/01/13 06:35:09;;;;;;;0.95;0.85;;;;;;;11.06;64.95;99207.50;5019507;28;20197;-84
2023/01/13 06:37:36;;;;;;;0.98;0.60;;;;;;;11.06;64.84;99185.63;5038910;28;20222;-83
2023/01/13 06:40:05;;;;;;;2.53;0.88;;;;;;;11.04;64.92;99190.16;5029861;28;20249;-83
2023/01/13 06:45:20;;;;;;;2.35;0.70;;;;;;;11.05;65.11;99205.00;5015237;28;20256;-86
2023/01/13 06:47:46;;;;;;;0.93;0.60;;;;;;;11.05;65.18;99205.00;5025835;28;20223;-83
2023/01/13 06:50:11;;;;;;;0.70;0.70;;;;;;;11.04;65.22;99208.56;5030237;28;20220;-86
2023/01/13 06:52:37;;;;;;;0.70;0.60;;;;;;;11.03;65.18;99206.88;5017288;28;20217;-86
2023/01/13 06:55:03;;;;;;;0.80;0.60;;;;;;;10.99;65.36;99200.16;5016706;28;20193;-86
2023/01/13 06:57:28;;;;;;;0.70;0.57;;;;;;;10.99;65.53;99195.78;5029479;28;20271;-86
2023/01/13 06:59:53;;;;;;;0.90;0.70;;;;;;;11.02;65.35;99200.81;5033190;28;20511;-86
2023/01/13 07:02:19;;;;;;;0.90;0.70;;;;;;;11.02;65.45;99200.81;5018598;28;20285;-85
2023/01/13 07:04:45;;;;;;;1.20;0.70;;;;;;;11.06;65.71;99201.41;5036163;28;20547;-84
2023/01/13 07:07:11;;;;;;;1.35;0.80;;;;;;;11.04;65.71;99217.31;5036934;28;20214;-83
2023/01/13 07:09:37;;;;;;;1.38;0.68;;;;;;;11.03;65.94;99204.25;5026708;28;20640;-85
2023/01/13 07:12:03;;;;;;;0.70;0.60;;;;;;;11.04;65.71;99208.56;5019363;28;20218;-83
2023/01/13 07:17:12;;;;;;;1.00;0.63;;;;;;;11.06;65.67;99215.38;5030247;28;20201;-82
2023/01/13 07:19:38;;;;;;;0.80;0.57;;;;;;;11.07;65.70;99234.63;5024356;28;20243;-83
2023/01/13 07:22:03;;;;;;;1.70;0.77;;;;;;;11.10;65.58;99229.16;5008294;28;20521;-82
2023/01/13 07:24:29;;;;;;;0.90;0.70;;;;;;;11.12;65.50;99231.66;5030938;28;20205;-85
2023/01/13 07:26:54;;;;;;;1.17;0.70;;;;;;;11.18;65.50;99242.59;5027168;28;20209;-85
2023/01/13 07:29:19;;;;;;;1.33;0.73;;;;;;;11.18;65.45;99245.22;5023637;28;20227;-85
2023/01/13 07:31:45;;;;;;;1.17;0.90;;;;;;;11.17;65.63;99251.41;5029877;28;20448;-85
2023/01/13 07:34:10;;;;;;;1.20;0.80;;;;;;;11.23;65.48;99265.91;5030386;28;20204;-86
2023/01/13 07:36:36;;;;;;;0.60;0.60;;;;;;;11.27;65.52;99262.94;5028385;28;20206;-86
2023/01/13 07:39:02;;;;;;;3.80;1.00;;;;;;;11.32;65.24;99269.69;5018340;28;20667;-85
2023/01/13 07:44:11;;;;;;;0.80;0.70;;;;;;;11.37;65.29;99259.66;5029156;28;20308;-83
2023/01/13 07:46:38;;;;;;;0.70;0.63;;;;;;;11.38;65.04;99262.19;5026477;28;20696;-83
2023/01/13 07:49:04;;;;;;;0.93;0.60;;;;;;;11.38;65.17;99243.78;5023709;28;20733;-85
2023/01/13 07:51:30;;;;;;;1.05;0.80;;;;;;;11.43;65.02;99243.44;5019885;28;20207;-84
2023/01/13 07:53:55;;;;;;;1.00;0.90;;;;;;;11.47;65.03;99250.16;5006378;28;20229;-83
2023/01/13 07:56:21;;;;;;;1.53;1.10;;;;;;;11.49;65.28;99248.25;5015593;28;20195;-85
2023/01/13 07:58:49;;;;;;;0.70;0.70;;;;;;;11.49;65.21;99243.00;5002476;28;21135;-83
2023/01/13 08:01:16;;;;;;;1.00;0.73;;;;;;;11.43;66.13;99252.16;5028705;28;20208;-85
2023/01/13 08:03:42;;;;;;;1.27;0.60;;;;;;;11.43;66.36;99259.22;5027899;28;20200;-83
2023/01/13 08:06:09;;;;;;;3.47;1.00;;;;;;;11.34;67.14;99270.38;5010022;28;20205;-83
2023/01/13 08:08:34;;;;;;;1.17;0.85;;;;;;;11.27;68.03;99278.72;5022483;28;20202;-87
2023/01/13 08:11:01;;;;;;;0.97;0.67;;;;;;;11.23;68.22;99292.19;5011721;28;20209;-85
2023/01/13 08:13:27;;;;;;;0.70;0.70;;;;;;;11.15;69.04;99299.78;5014955;28;20220;-85
2023/01/13 08:15:58;;;;;;;0.70;0.70;;;;;;;11.10;69.36;99305.41;5011731;28;20202;-86
2023/01/13 08:18:24;;;;;;;1.00;0.80;;;;;;;11.06;69.79;99307.38;5002563;28;20548;-85
2023/01/13 08:20:53;;;;;;;0.80;0.73;;;;;;;11.02;70.01;99299.84;5013801;28;20728;-83
2023/01/13 08:23:20;;;;;;;1.30;0.73;;;;;;;11.03;69.99;99299.72;4980098;28;20237;-86
2023/01/13 08:25:46;;;;;;;3.15;1.00;;;;;;;11.03;70.17;99312.03;5005729;28;20198;-84
2023/01/13 08:28:12;;;;;;;3.23;0.90;;;;;;;11.02;70.28;99290.16;5002369;28;20479;-85
2023/01/13 08:30:37;;;;;;;1.42;0.80;;;;;;;11.08;69.97;99305.50;4997331;28;20596;-83
2023/01/13 08:33:06;;;;;;;1.47;1.07;;;;;;;11.12;69.76;99307.91;5036498;28;20218;-83
2023/01/13 08:35:32;;;;;;;1.33;0.90;;;;;;;11.15;69.74;99299.78;4996606;28;20522;-85
2023/01/13 08:37:58;;;;;;;0.90;0.70;;;;;;;11.16;69.58;99306.75;5006880;28;20277;-86
2023/01/13 08:40:23;;;;;;;1.53;0.80;;;;;;;11.21;69.52;99302.84;5021875;28;20585;-86
2023/01/13 08:42:49;;;;;;;1.00;0.63;;;;;;;11.24;69.47;99301.78;5010430;28;20612;-85
2023/01/13 08:45:15;;;;;;;2.10;1.03;;;;;;;11.28;69.06;99316.38;5016327;28;20221;-85
2023/01/13 08:47:40;;;;;;;0.70;0.63;;;;;;;11.26;69.17;99313.00;5002472;28;21070;-86
2023/01/13 08:50:06;;;;;;;1.40;0.83;;;;;;;11.30;68.99;99317.94;4994071;28;20215;-82
2023/01/13 08:52:32;;;;;;;1.30;1.20;;;;;;;11.32;69.02;99317.84;5004604;28;20216;-86
2023/01/13 08:54:57;;;;;;;1.43;1.00;;;;;;;11.39;68.74;99328.75;5016855;28;20347;-83
2023/01/13 08:57:23;;;;;;;0.80;0.70;;;;;;;11.35;68.78;99324.69;4997537;28;20533;-83
2023/01/13 08:59:48;;;;;;;0.60;0.50;;;;;;;11.37;68.57;99338.53;5004729;28;20243;-83
2023/01/13 09:02:16;;;;;;;0.70;0.70;;;;;;;11.41;68.47;99334.75;5014754;28;20235;-84
2023/01/13 09:04:42;;;;;;;2.15;1.05;;;;;;;11.42;68.33;99339.91;5018096;28;20188;-83
2023/01/13 09:07:08;;;;;;;0.90;0.70;;;;;;;11.47;68.33;99343.03;5024600;28;20298;-83
2023/01/13 09:09:34;;;;;;;2.00;0.70;;;;;;;11.49;68.12;99351.66;5002850;28;20322;-86
2023/01/13 09:14:43;;;;;;;0.70;0.70;;;;;;;11.66;67.40;99352.22;5006287;28;20206;-84
2023/01/13 09:17:09;;;;;;;0.90;0.80;;;;;;;11.77;67.00;99360.19;5005275;28;20184;-84
2023/01/13 09:19:35;;;;;;;0.80;0.63;;;;;;;11.89;66.53;99361.13;5018009;28;20597;-84
2023/01/13 09:22:01;;;;;;;2.45;2.25;;;;;;;11.98;66.01;99359.63;5024590;28;20707;-82
2023/01/13 09:24:26;;;;;;;2.20;0.90;;;;;;;12.03;65.69;99345.16;5043987;28;20204;-84
2023/01/13 09:26:52;;;;;;;1.00;0.73;;;;;;;12.09;65.37;99364.94;5029264;28;20451;-83
2023/01/13 09:29:18;;;;;;;2.97;0.90;;;;;;;12.12;65.23;99370.81;4991613;28;20223;-85
2023/01/13 09:31:44;;;;;;;1.17;0.83;;;;;;;12.16;65.03;99372.28;5009565;28;20211;-86
2023/01/13 09:36:58;;;;;;;2.03;0.90;;;;;;;12.15;64.52;99383.75;5027372;28;20192;-85
2023/01/13 09:39:24;;;;;;;1.33;0.75;;;;;;;12.08;64.59;99389.59;5014744;28;20416;-86
2023/01/13 09:44:38;;;;;;;1.10;1.00;;;;;;;11.95;65.02;99379.09;5029610;28;20231;-85
2023/01/13 09:47:13;;;;;;;0.90;0.70;;;;;;;11.95;65.07;99368.59;5028105;28;20203;-85
2023/01/13 09:49:41;;;;;;;2.28;1.08;;;;;;;11.93;65.06;99358.16;5018775;28;20300;-83
2023/01/13 09:52:18;;;;;;;2.58;0.80;;;;;;;11.90;65.22;99384.69;5027544;28;20252;-85
2023/01/13 09:54:50;;;;;;;1.55;0.80;;;;;;;11.93;64.71;99386.28;5028377;28;20225;-83
2023/01/13 09:57:18;;;;;;;0.90;0.70;;;;;;;12.03;64.64;99391.72;5029671;28;20406;-83
2023/01/13 09:59:43;;;;;;;1.00;0.90;;;;;;;12.69;62.96;99376.25;5022825;28;20319;-83
2023/01/13 10:02:24;;;;;;;3.17;1.13;;;;;;;13.62;60.14;99382.19;5026160;28;20270;-85
2023/01/13 10:05:34;;;;;;;2.20;0.88;;;;;;;14.39;nan;99374.16;5033908;28;20212;-85
2023/01/13 10:08:10;;;;;;;1.42;1.08;;;;;;;14.97;nan;99363.13;5012469;28;20206;-85
2023/01/13 10:10:47;;;;;;;1.20;1.10;;;;;;;15.66;nan;99361.53;5026876;28;20194;-86
2023/01/13 10:13:20;;;;;;;1.70;0.77;;;;;;;;;;5025039;28;20268;-85
2023/01/13 10:15:54;;;;;;;1.58;1.00;;;;;;;;;;5025844;28;20479;-86
2023/01/13 10:18:43;;;;;;;2.85;0.88;;;;;;;;;;5011870;28;20193;-86
2023/01/13 10:21:39;;;;;;;1.15;0.90;;;;;;;;;;5010876;28;20186;-85
2023/01/13 10:24:06;;;;;;;1.25;0.70;;;;;;;;;;5003825;28;20352;-85
2023/01/13 10:26:40;;;;;;;0.70;0.60;;;;;;;;;;5023992;28;20410;-85
2023/01/13 10:29:19;;;;;;;1.23;0.73;;;;;;;;;;5020523;28;20209;-85
2023/01/13 10:31:44;;;;;;;0.82;0.70;;;;;;;;;;5002907;28;20194;-85
2023/01/13 10:34:10;;;;;;;1.07;0.80;;;;;;;;;;5020531;28;20180;-86
2023/01/13 10:36:36;;;;;;;0.70;0.60;;;;;;;;;;5045511;28;20200;-86
2023/01/13 10:39:09;;;;;;;0.93;0.87;;;;;;;;;;5020835;28;20212;-85
2023/01/13 10:41:35;;;;;;;1.75;0.75;;;;;;;;;;5012670;28;20188;-86
2023/01/13 10:44:00;;;;;;;1.17;0.70;;;;;;;;;;5025322;28;20203;-85
2023/01/13 10:46:26;;;;;;;1.03;0.90;;;;;;;;;;5041916;28;20186;-85
2023/01/13 10:48:51;;;;;;;1.50;0.82;;;;;;;;;;5024050;28;20209;-86
2023/01/13 10:51:20;;;;;;;0.90;0.80;;;;;;;;;;5037415;28;20175;-85
2023/01/13 10:53:53;;;;;;;0.93;0.70;;;;;;;;;;5029528;28;20334;-85
2023/01/13 10:56:19;;;;;;;1.67;1.00;;;;;;;;;;5042325;28;20727;-85
2023/01/13 10:58:45;;;;;;;2.08;0.80;;;;;;;;;;5030264;28;20293;-85
2023/01/13 11:01:24;;;;;;;0.70;0.60;;;;;;;12.81;nan;99397.25;5023920;28;20732;-86
2023/01/13 11:03:50;;;;;;;0.73;0.73;;;;;;;12.77;nan;99392.31;5023776;28;20642;-86
2023/01/13 11:06:26;;;;;;;1.90;0.90;;;;;;;12.81;nan;99401.69;5033366;28;20279;-85
2023/01/13 11:08:54;;;;;;;0.70;0.70;;;;;;;12.84;nan;99410.19;5022381;28;20240;-86
2023/01/13 11:11:42;;;;;;;1.00;0.70;;;;;;;12.84;nan;99418.09;4993603;28;20276;-85
2023/01/13 11:14:32;;;;;;;2.35;0.80;;;;;;;12.83;nan;99424.34;5024193;28;20572;-85
2023/01/13 11:17:01;;;;;;;1.95;1.30;;;;;;;12.79;nan;99448.41;5014096;28;20198;-85
2023/01/13 11:19:29;;;;;;;4.28;2.42;;;;;;;12.77;nan;99437.13;5022640;28;20409;-85
2023/01/13 11:22:01;;;;;;;3.08;1.30;;;;;;;12.63;nan;99449.53;5002266;28;20203;-85
2023/01/13 11:24:37;;;;;;;6.60;3.95;;;;;;;12.50;nan;99464.59;5022404;28;20574;-85
2023/01/13 11:27:20;;;;;;;3.60;2.25;;;;;;;12.30;nan;99473.13;5030114;28;20191;-85
2023/01/13 11:30:01;;;;;;;2.10;1.00;;;;;;;12.20;nan;99480.00;5008371;28;20206;-85
2023/01/13 11:32:32;;;;;;;2.30;0.80;;;;;;;12.03;nan;99492.59;5025223;28;20450;-86
2023/01/13 11:35:08;;;;;;;1.75;0.90;;;;;;;11.80;nan;99485.44;5024898;28;20271;-86
2023/01/13 11:37:39;;;;;;;0.80;0.60;;;;;;;11.65;nan;99503.16;5023205;28;20210;-85
2023/01/13 11:40:25;;;;;;;1.00;0.60;;;;;;;11.55;nan;99489.78;4980554;28;20200;-86
2023/01/13 11:43:09;;;;;;;1.52;1.42;;;;;;;11.52;nan;99487.38;4984989;28;20577;-86
2023/01/13 11:45:56;;;;;;;0.85;0.70;;;;;;;11.57;nan;99473.91;4994796;28;20257;-86
2023/01/13 11:48:25;;;;;;;0.90;0.80;;;;;;;11.63;nan;99479.56;5017526;28;20248;-85
2023/01/13 11:51:15;;;;;;;3.10;1.60;;;;;;;11.66;nan;99478.53;5021950;28;20198;-85
2023/01/13 11:53:58;;;;;;;1.40;0.93;;;;;;;11.72;nan;99476.31;5023474;28;20556;-85
2023/01/13 11:56:37;;;;;;;1.65;0.90;;;;;;;11.80;nan;99481.03;5024989;28;20196;-85
2023/01/13 11:59:28;;;;;;;1.30;0.90;;;;;;;11.94;nan;99488.00;5014334;28;20389;-85
2023/01/13 12:02:16;;;;;;;1.02;0.90;;;;;;;12.10;nan;99499.09;5018875;28;20260;-85
2023/01/13 12:05:24;;;;;;;1.35;0.90;;;;;;;12.23;nan;99487.66;5025245;28;20533;-85
2023/01/13 12:08:05;;;;;;;2.95;1.63;;;;;;;12.33;nan;99484.25;5032609;28;20411;-85
2023/01/13 12:10:54;;;;;;;4.80;2.35;;;;;;;12.40;nan;99485.50;5021211;28;20516;-85
2023/01/13 12:13:25;;;;;;;3.95;2.70;;;;;;;12.45;nan;99493.06;5024871;28;20319;-85
2023/01/13 12:16:22;;;;;;;1.27;1.10;;;;;;;12.48;nan;99490.22;5013859;28;20218;-85
2023/01/13 12:19:09;;;;;;;2.03;1.88;;;;;;;12.55;nan;99486.16;4983455;28;20235;-85
2023/01/13 12:21:48;;;;;;;6.32;5.25;;;;;;;12.65;nan;99486.34;5030125;28;20219;-85
2023/01/13 12:24:24;;;;;;;12.98;10.18;;;;;;;12.75;nan;99482.06;5015250;28;20951;-85
2023/01/13 12:27:00;;;;;;;4.45;3.10;;;;;;;12.77;nan;99474.03;5032616;28;20212;-85
2023/01/13 12:29:35;;;;;;;2.72;2.45;;;;;;;12.79;nan;99490.56;5023177;28;20234;-85
2023/01/13 12:32:32;;;;;;;1.73;1.02;;;;;;;12.85;nan;99476.91;5002316;28;20222;-85
2023/01/13 12:35:27;;;;;;;1.00;0.80;;;;;;;12.89;nan;99469.66;5033578;28;20204;-86
2023/01/13 12:38:14;;;;;;;1.45;1.00;;;;;;;12.85;nan;99463.75;5042932;28;20247;-85
2023/01/13 12:40:50;;;;;;;1.83;0.80;;;;;;;12.77;nan;99466.13;5007829;28;20222;-85
2023/01/13 12:46:20;;;;;;;3.92;1.45;;;;;;;12.60;nan;99483.19;5028866;28;20234;-85
2023/01/13 12:48:58;;;;;;;2.85;1.40;;;;;;;12.51;nan;99487.34;5014296;28;20255;-85